sensor_id;sensor_type;location;lat;lon;timestamp;temperature;humidity
7307;DHT22;3694;48.732;9.248;2022-10-30T00:00:03;14.60;99.90
7307;DHT22;3694;48.732;9.248;2022-10-30T00:02:29;14.60;99.90
7307;DHT22;3694;48.732;9.248;2022-10-30T00:04:55;14.60;99.90
7307;DHT22;3694;48.732;9.248;2022-10-30T00:07:20;14.50;99.90
7307;DHT22;3694;48.732;9.248;2022-10-30T00:09:46;14.40;99.90
7307;DHT22;3694;48.732;9.248;2022-10-30T00:12:11;14.30;99.90
7307;DHT22;3694;48.732;9.248;2022-10-30T00:14:37;14.30;99.90
7307;DHT22;3694;48.732;9.248;2022-10-30T00:17:02;14.10;99.90
7307;DHT22;3694;48.732;9.248;2022-10-30T00:19:28;14.20;99.90
7307;DHT22;3694;48.732;9.248;2022-10-30T00:21:53;14.10;99.90
7307;DHT22;3694;48.732;9.248;2022-10-30T00:24:19;14.10;99.90
7307;DHT22;3694;48.732;9.248;2022-10-30T00:26:44;14.10;99.90
7307;DHT22;3694;48.732;9.248;2022-10-30T00:29:10;14.10;99.90
7307;DHT22;3694;48.732;9.248;2022-10-30T00:31:35;14.10;99.90
7307;DHT22;3694;48.732;9.248;2022-10-30T00:34:01;13.90;99.90
7307;DHT22;3694;48.732;9.248;2022-10-30T00:36:26;13.80;99.90
7307;DHT22;3694;48.732;9.248;2022-10-30T00:38:52;13.80;99.90
7307;DHT22;3694;48.732;9.248;2022-10-30T00:41:20;13.60;99.90
7307;DHT22;3694;48.732;9.248;2022-10-30T00:43:46;13.50;99.90
7307;DHT22;3694;48.732;9.248;2022-10-30T00:49:02;13.20;99.90
7307;DHT22;3694;48.732;9.248;2022-10-30T00:51:29;13.10;99.90
7307;DHT22;3694;48.732;9.248;2022-10-30T00:53:58;13.00;99.90
7307;DHT22;3694;48.732;9.248;2022-10-30T00:56:24;13.00;99.90
7307;DHT22;3694;48.732;9.248;2022-10-30T00:58:54;13.00;99.90
7307;DHT22;3694;48.732;9.248;2022-10-30T01:01:24;12.90;99.90
7307;DHT22;3694;48.732;9.248;2022-10-30T01:03:55;13.10;99.90
7307;DHT22;3694;48.732;9.248;2022-10-30T01:06:22;12.90;99.90
7307;DHT22;3694;48.732;9.248;2022-10-30T01:08:49;12.90;99.90
7307;DHT22;3694;48.732;9.248;2022-10-30T01:11:15;12.90;99.90
7307;DHT22;3694;48.732;9.248;2022-10-30T01:13:42;12.90;99.90
7307;DHT22;3694;48.732;9.248;2022-10-30T01:24:05;12.70;99.90
7307;DHT22;3694;48.732;9.248;2022-10-30T01:27:09;12.90;99.90
7307;DHT22;3694;48.732;9.248;2022-10-30T01:33:07;12.70;99.90
7307;DHT22;3694;48.732;9.248;2022-10-30T01:35:46;12.60;99.90
7307;DHT22;3694;48.732;9.248;2022-10-30T01:38:31;12.60;99.90
7307;DHT22;3694;48.732;9.248;2022-10-30T01:40:59;12.50;99.90
7307;DHT22;3694;48.732;9.248;2022-10-30T01:43:24;12.40;99.90
7307;DHT22;3694;48.732;9.248;2022-10-30T01:46:05;12.30;99.90
7307;DHT22;3694;48.732;9.248;2022-10-30T01:48:56;12.10;99.90
7307;DHT22;3694;48.732;9.248;2022-10-30T01:51:42;12.00;99.90
7307;DHT22;3694;48.732;9.248;2022-10-30T01:54:31;11.90;99.90
7307;DHT22;3694;48.732;9.248;2022-10-30T01:57:47;11.90;99.90
7307;DHT22;3694;48.732;9.248;2022-10-30T02:00:09;11.90;99.90
7307;DHT22;3694;48.732;9.248;2022-10-30T02:02:35;11.80;99.90
7307;DHT22;3694;48.732;9.248;2022-10-30T02:05:02;11.80;99.90
7307;DHT22;3694;48.732;9.248;2022-10-30T02:07:29;11.80;99.90
7307;DHT22;3694;48.732;9.248;2022-10-30T02:09:54;11.90;99.90
7307;DHT22;3694;48.732;9.248;2022-10-30T02:12:21;12.00;99.90
7307;DHT22;3694;48.732;9.248;2022-10-30T02:14:51;12.00;99.90
7307;DHT22;3694;48.732;9.248;2022-10-30T02:17:17;12.10;99.90
7307;DHT22;3694;48.732;9.248;2022-10-30T02:19:43;12.10;99.90
7307;DHT22;3694;48.732;9.248;2022-10-30T02:22:09;12.10;99.90
7307;DHT22;3694;48.732;9.248;2022-10-30T02:24:36;12.20;99.90
7307;DHT22;3694;48.732;9.248;2022-10-30T02:27:02;12.20;99.90
7307;DHT22;3694;48.732;9.248;2022-10-30T02:29:27;12.30;99.90
7307;DHT22;3694;48.732;9.248;2022-10-30T02:31:53;12.40;99.90
7307;DHT22;3694;48.732;9.248;2022-10-30T02:34:18;12.40;99.90
7307;DHT22;3694;48.732;9.248;2022-10-30T02:36:44;12.40;99.90
7307;DHT22;3694;48.732;9.248;2022-10-30T02:39:10;12.40;99.90
7307;DHT22;3694;48.732;9.248;2022-10-30T02:41:36;12.50;99.90
7307;DHT22;3694;48.732;9.248;2022-10-30T02:44:02;12.40;99.90
7307;DHT22;3694;48.732;9.248;2022-10-30T02:46:27;12.40;99.90
7307;DHT22;3694;48.732;9.248;2022-10-30T02:48:53;12.40;99.90
7307;DHT22;3694;48.732;9.248;2022-10-30T02:51:18;12.40;99.90
7307;DHT22;3694;48.732;9.248;2022-10-30T02:53:44;12.40;99.90
7307;DHT22;3694;48.732;9.248;2022-10-30T02:56:11;12.30;99.90
7307;DHT22;3694;48.732;9.248;2022-10-30T02:58:37;12.20;99.90
7307;DHT22;3694;48.732;9.248;2022-10-30T03:01:17;12.10;99.90
7307;DHT22;3694;48.732;9.248;2022-10-30T03:03:44;12.10;99.90
7307;DHT22;3694;48.732;9.248;2022-10-30T03:06:12;12.00;99.90
7307;DHT22;3694;48.732;9.248;2022-10-30T03:08:38;12.00;99.90
7307;DHT22;3694;48.732;9.248;2022-10-30T03:11:12;12.00;99.90
7307;DHT22;3694;48.732;9.248;2022-10-30T03:13:39;11.90;99.90
7307;DHT22;3694;48.732;9.248;2022-10-30T03:16:16;11.90;99.90
7307;DHT22;3694;48.732;9.248;2022-10-30T03:18:42;11.80;99.90
7307;DHT22;3694;48.732;9.248;2022-10-30T03:21:14;11.80;99.90
7307;DHT22;3694;48.732;9.248;2022-10-30T03:23:40;11.80;99.90
7307;DHT22;3694;48.732;9.248;2022-10-30T03:26:06;11.80;99.90
7307;DHT22;3694;48.732;9.248;2022-10-30T03:28:32;11.90;99.90
7307;DHT22;3694;48.732;9.248;2022-10-30T03:31:06;11.80;99.90
7307;DHT22;3694;48.732;9.248;2022-10-30T03:33:32;11.80;99.90
7307;DHT22;3694;48.732;9.248;2022-10-30T03:35:58;11.70;99.90
7307;DHT22;3694;48.732;9.248;2022-10-30T03:38:24;11.80;99.90
7307;DHT22;3694;48.732;9.248;2022-10-30T03:40:50;11.80;99.90
7307;DHT22;3694;48.732;9.248;2022-10-30T03:43:16;11.70;99.90
7307;DHT22;3694;48.732;9.248;2022-10-30T03:45:47;11.70;99.90
7307;DHT22;3694;48.732;9.248;2022-10-30T03:48:12;11.60;99.90
7307;DHT22;3694;48.732;9.248;2022-10-30T03:50:38;11.70;99.90
7307;DHT22;3694;48.732;9.248;2022-10-30T03:53:03;11.40;99.90
7307;DHT22;3694;48.732;9.248;2022-10-30T03:55:29;11.50;99.90
7307;DHT22;3694;48.732;9.248;2022-10-30T03:57:54;11.20;99.90
7307;DHT22;3694;48.732;9.248;2022-10-30T04:00:20;11.10;99.90
7307;DHT22;3694;48.732;9.248;2022-10-30T04:02:50;11.10;99.90
7307;DHT22;3694;48.732;9.248;2022-10-30T04:05:19;11.10;99.90
7307;DHT22;3694;48.732;9.248;2022-10-30T04:07:44;11.10;99.90
7307;DHT22;3694;48.732;9.248;2022-10-30T04:10:11;11.00;99.90
7307;DHT22;3694;48.732;9.248;2022-10-30T04:12:37;10.90;99.90
7307;DHT22;3694;48.732;9.248;2022-10-30T04:15:04;10.90;99.90
7307;DHT22;3694;48.732;9.248;2022-10-30T04:17:30;10.90;99.90
7307;DHT22;3694;48.732;9.248;2022-10-30T04:19:55;10.90;99.90
7307;DHT22;3694;48.732;9.248;2022-10-30T04:22:21;10.90;99.90
7307;DHT22;3694;48.732;9.248;2022-10-30T04:24:47;11.00;99.90
7307;DHT22;3694;48.732;9.248;2022-10-30T04:27:14;10.80;99.90
7307;DHT22;3694;48.732;9.248;2022-10-30T04:29:39;10.80;99.90
7307;DHT22;3694;48.732;9.248;2022-10-30T04:32:07;10.90;99.90
7307;DHT22;3694;48.732;9.248;2022-10-30T04:34:32;10.90;99.90
7307;DHT22;3694;48.732;9.248;2022-10-30T04:36:58;10.80;99.90
7307;DHT22;3694;48.732;9.248;2022-10-30T04:39:23;10.90;99.90
7307;DHT22;3694;48.732;9.248;2022-10-30T04:41:49;10.80;99.90
7307;DHT22;3694;48.732;9.248;2022-10-30T04:44:14;10.90;99.90
7307;DHT22;3694;48.732;9.248;2022-10-30T04:46:40;10.80;99.90
7307;DHT22;3694;48.732;9.248;2022-10-30T04:49:06;10.80;99.90
7307;DHT22;3694;48.732;9.248;2022-10-30T04:51:31;10.70;99.90
7307;DHT22;3694;48.732;9.248;2022-10-30T04:53:57;10.70;99.90
7307;DHT22;3694;48.732;9.248;2022-10-30T04:56:23;10.60;99.90
7307;DHT22;3694;48.732;9.248;2022-10-30T04:58:49;10.70;99.90
7307;DHT22;3694;48.732;9.248;2022-10-30T05:01:14;10.60;99.90
7307;DHT22;3694;48.732;9.248;2022-10-30T05:03:40;10.70;99.90
7307;DHT22;3694;48.732;9.248;2022-10-30T05:06:12;10.70;99.90
7307;DHT22;3694;48.732;9.248;2022-10-30T05:08:41;10.70;99.90
7307;DHT22;3694;48.732;9.248;2022-10-30T05:11:06;10.80;99.90
7307;DHT22;3694;48.732;9.248;2022-10-30T05:13:32;10.60;99.90
7307;DHT22;3694;48.732;9.248;2022-10-30T05:15:57;10.60;99.90
7307;DHT22;3694;48.732;9.248;2022-10-30T05:18:23;10.60;99.90
7307;DHT22;3694;48.732;9.248;2022-10-30T05:20:48;10.60;99.90
7307;DHT22;3694;48.732;9.248;2022-10-30T05:23:14;10.70;99.90
7307;DHT22;3694;48.732;9.248;2022-10-30T05:25:39;10.70;99.90
7307;DHT22;3694;48.732;9.248;2022-10-30T05:28:05;10.60;99.90
7307;DHT22;3694;48.732;9.248;2022-10-30T05:30:32;10.50;99.90
7307;DHT22;3694;48.732;9.248;2022-10-30T05:32:59;10.60;99.90
7307;DHT22;3694;48.732;9.248;2022-10-30T05:35:26;10.40;99.90
7307;DHT22;3694;48.732;9.248;2022-10-30T05:37:51;10.40;99.90
7307;DHT22;3694;48.732;9.248;2022-10-30T05:40:17;10.40;99.90
7307;DHT22;3694;48.732;9.248;2022-10-30T05:42:47;10.40;99.90
7307;DHT22;3694;48.732;9.248;2022-10-30T05:45:13;10.40;99.90
7307;DHT22;3694;48.732;9.248;2022-10-30T05:47:38;10.50;99.90
7307;DHT22;3694;48.732;9.248;2022-10-30T05:50:05;10.60;99.90
7307;DHT22;3694;48.732;9.248;2022-10-30T05:52:30;10.60;99.90
7307;DHT22;3694;48.732;9.248;2022-10-30T05:54:56;10.60;99.90
7307;DHT22;3694;48.732;9.248;2022-10-30T05:57:21;10.70;99.90
7307;DHT22;3694;48.732;9.248;2022-10-30T05:59:47;10.70;99.90
7307;DHT22;3694;48.732;9.248;2022-10-30T06:02:13;10.70;99.90
7307;DHT22;3694;48.732;9.248;2022-10-30T06:04:38;10.70;99.90
7307;DHT22;3694;48.732;9.248;2022-10-30T06:07:04;10.70;99.90
7307;DHT22;3694;48.732;9.248;2022-10-30T06:09:29;10.80;99.90
7307;DHT22;3694;48.732;9.248;2022-10-30T06:11:55;10.70;99.90
7307;DHT22;3694;48.732;9.248;2022-10-30T06:14:21;10.70;99.90
7307;DHT22;3694;48.732;9.248;2022-10-30T06:16:48;10.70;99.90
7307;DHT22;3694;48.732;9.248;2022-10-30T06:19:13;10.70;99.90
7307;DHT22;3694;48.732;9.248;2022-10-30T06:21:39;10.70;99.90
7307;DHT22;3694;48.732;9.248;2022-10-30T06:24:05;10.70;99.90
7307;DHT22;3694;48.732;9.248;2022-10-30T06:26:30;10.70;99.90
7307;DHT22;3694;48.732;9.248;2022-10-30T06:28:56;10.80;99.90
7307;DHT22;3694;48.732;9.248;2022-10-30T06:31:21;10.80;99.90
7307;DHT22;3694;48.732;9.248;2022-10-30T06:33:47;10.90;99.90
7307;DHT22;3694;48.732;9.248;2022-10-30T06:36:12;10.90;99.90
7307;DHT22;3694;48.732;9.248;2022-10-30T06:38:38;10.90;99.90
7307;DHT22;3694;48.732;9.248;2022-10-30T06:41:03;11.10;99.90
7307;DHT22;3694;48.732;9.248;2022-10-30T06:43:29;10.90;99.90
7307;DHT22;3694;48.732;9.248;2022-10-30T06:45:56;11.10;99.90
7307;DHT22;3694;48.732;9.248;2022-10-30T06:48:22;11.00;99.90
7307;DHT22;3694;48.732;9.248;2022-10-30T06:50:56;11.20;99.90
7307;DHT22;3694;48.732;9.248;2022-10-30T06:53:22;11.10;99.90
7307;DHT22;3694;48.732;9.248;2022-10-30T06:56:01;11.10;99.90
7307;DHT22;3694;48.732;9.248;2022-10-30T06:58:28;11.20;99.90
7307;DHT22;3694;48.732;9.248;2022-10-30T07:00:54;11.30;99.90
7307;DHT22;3694;48.732;9.248;2022-10-30T07:03:20;11.40;99.90
7307;DHT22;3694;48.732;9.248;2022-10-30T07:05:46;11.40;99.90
7307;DHT22;3694;48.732;9.248;2022-10-30T07:08:12;11.50;99.90
7307;DHT22;3694;48.732;9.248;2022-10-30T07:10:38;11.50;99.90
7307;DHT22;3694;48.732;9.248;2022-10-30T07:13:03;11.60;99.90
7307;DHT22;3694;48.732;9.248;2022-10-30T07:15:29;11.70;99.90
7307;DHT22;3694;48.732;9.248;2022-10-30T07:17:56;12.10;99.90
7307;DHT22;3694;48.732;9.248;2022-10-30T07:20:22;12.50;99.90
7307;DHT22;3694;48.732;9.248;2022-10-30T07:22:48;13.00;99.90
7307;DHT22;3694;48.732;9.248;2022-10-30T07:25:13;13.20;99.90
7307;DHT22;3694;48.732;9.248;2022-10-30T07:27:43;13.20;99.90
7307;DHT22;3694;48.732;9.248;2022-10-30T07:30:14;13.10;99.90
7307;DHT22;3694;48.732;9.248;2022-10-30T07:32:41;13.00;99.90
7307;DHT22;3694;48.732;9.248;2022-10-30T07:35:08;12.90;99.90
7307;DHT22;3694;48.732;9.248;2022-10-30T07:37:33;13.00;99.90
7307;DHT22;3694;48.732;9.248;2022-10-30T07:39:59;13.00;99.90
7307;DHT22;3694;48.732;9.248;2022-10-30T07:42:25;13.10;99.90
7307;DHT22;3694;48.732;9.248;2022-10-30T07:44:50;13.20;99.90
7307;DHT22;3694;48.732;9.248;2022-10-30T07:47:16;13.20;99.90
7307;DHT22;3694;48.732;9.248;2022-10-30T07:49:41;13.30;99.90
7307;DHT22;3694;48.732;9.248;2022-10-30T07:52:07;13.40;99.90
7307;DHT22;3694;48.732;9.248;2022-10-30T07:54:32;13.40;99.90
7307;DHT22;3694;48.732;9.248;2022-10-30T07:56:58;13.60;99.90
7307;DHT22;3694;48.732;9.248;2022-10-30T07:59:24;13.70;99.90
7307;DHT22;3694;48.732;9.248;2022-10-30T08:01:50;13.80;99.90
7307;DHT22;3694;48.732;9.248;2022-10-30T08:04:16;13.80;99.90
7307;DHT22;3694;48.732;9.248;2022-10-30T08:06:41;13.80;99.90
7307;DHT22;3694;48.732;9.248;2022-10-30T08:09:07;13.80;99.90
7307;DHT22;3694;48.732;9.248;2022-10-30T08:11:33;13.90;99.90
7307;DHT22;3694;48.732;9.248;2022-10-30T08:13:59;13.90;99.90
7307;DHT22;3694;48.732;9.248;2022-10-30T08:16:24;14.00;99.90
7307;DHT22;3694;48.732;9.248;2022-10-30T08:18:50;14.10;99.90
7307;DHT22;3694;48.732;9.248;2022-10-30T08:21:15;14.20;99.90
7307;DHT22;3694;48.732;9.248;2022-10-30T08:23:41;14.30;99.90
7307;DHT22;3694;48.732;9.248;2022-10-30T08:26:07;14.40;99.90
7307;DHT22;3694;48.732;9.248;2022-10-30T08:28:32;14.30;99.90
7307;DHT22;3694;48.732;9.248;2022-10-30T08:30:58;14.40;99.90
7307;DHT22;3694;48.732;9.248;2022-10-30T08:33:24;14.40;99.90
7307;DHT22;3694;48.732;9.248;2022-10-30T08:35:55;14.40;99.90
7307;DHT22;3694;48.732;9.248;2022-10-30T08:38:21;14.40;99.90
7307;DHT22;3694;48.732;9.248;2022-10-30T08:40:47;14.50;99.90
7307;DHT22;3694;48.732;9.248;2022-10-30T08:43:13;14.60;99.90
7307;DHT22;3694;48.732;9.248;2022-10-30T08:45:39;14.70;99.90
7307;DHT22;3694;48.732;9.248;2022-10-30T08:48:05;14.70;99.90
7307;DHT22;3694;48.732;9.248;2022-10-30T08:50:32;14.80;99.90
7307;DHT22;3694;48.732;9.248;2022-10-30T08:53:02;14.80;99.90
7307;DHT22;3694;48.732;9.248;2022-10-30T08:55:29;14.80;99.90
7307;DHT22;3694;48.732;9.248;2022-10-30T08:57:54;14.90;99.90
7307;DHT22;3694;48.732;9.248;2022-10-30T09:00:20;14.90;99.90
7307;DHT22;3694;48.732;9.248;2022-10-30T09:02:45;15.00;99.90
7307;DHT22;3694;48.732;9.248;2022-10-30T09:05:11;15.10;99.90
7307;DHT22;3694;48.732;9.248;2022-10-30T09:07:37;15.20;99.90
7307;DHT22;3694;48.732;9.248;2022-10-30T09:10:03;15.30;99.90
7307;DHT22;3694;48.732;9.248;2022-10-30T09:12:28;15.40;99.90
7307;DHT22;3694;48.732;9.248;2022-10-30T09:14:54;15.50;99.90
7307;DHT22;3694;48.732;9.248;2022-10-30T09:17:19;15.50;99.90
7307;DHT22;3694;48.732;9.248;2022-10-30T09:19:45;15.70;99.90
7307;DHT22;3694;48.732;9.248;2022-10-30T09:22:10;15.90;99.90
7307;DHT22;3694;48.732;9.248;2022-10-30T09:24:36;16.10;99.90
7307;DHT22;3694;48.732;9.248;2022-10-30T09:27:04;16.10;99.90
7307;DHT22;3694;48.732;9.248;2022-10-30T09:29:30;16.10;99.90
7307;DHT22;3694;48.732;9.248;2022-10-30T09:31:56;16.30;99.90
7307;DHT22;3694;48.732;9.248;2022-10-30T09:34:22;16.40;99.90
7307;DHT22;3694;48.732;9.248;2022-10-30T09:36:47;16.40;99.90
7307;DHT22;3694;48.732;9.248;2022-10-30T09:39:13;16.50;99.90
7307;DHT22;3694;48.732;9.248;2022-10-30T09:44:54;16.60;99.90
7307;DHT22;3694;48.732;9.248;2022-10-30T09:47:50;16.70;99.90
7307;DHT22;3694;48.732;9.248;2022-10-30T09:50:26;16.80;99.90
7307;DHT22;3694;48.732;9.248;2022-10-30T09:55:33;17.10;99.90
7307;DHT22;3694;48.732;9.248;2022-10-30T09:58:18;17.20;99.90
7307;DHT22;3694;48.732;9.248;2022-10-30T10:00:52;17.30;99.90
7307;DHT22;3694;48.732;9.248;2022-10-30T10:03:37;17.50;99.90
7307;DHT22;3694;48.732;9.248;2022-10-30T10:06:04;17.60;99.90
7307;DHT22;3694;48.732;9.248;2022-10-30T10:08:43;17.70;99.80
7307;DHT22;3694;48.732;9.248;2022-10-30T10:11:17;17.90;99.70
7307;DHT22;3694;48.732;9.248;2022-10-30T10:14:01;18.00;99.50
7307;DHT22;3694;48.732;9.248;2022-10-30T10:16:34;18.10;99.00
7307;DHT22;3694;48.732;9.248;2022-10-30T10:21:52;18.30;98.70
7307;DHT22;3694;48.732;9.248;2022-10-30T10:24:25;18.20;98.90
7307;DHT22;3694;48.732;9.248;2022-10-30T10:26:56;18.40;99.20
7307;DHT22;3694;48.732;9.248;2022-10-30T10:30:18;18.60;99.30
7307;DHT22;3694;48.732;9.248;2022-10-30T10:34:56;18.70;99.30
7307;DHT22;3694;48.732;9.248;2022-10-30T10:43:11;19.00;99.30
7307;DHT22;3694;48.732;9.248;2022-10-30T10:48:44;19.20;98.80
7307;DHT22;3694;48.732;9.248;2022-10-30T10:51:17;19.20;98.60
7307;DHT22;3694;48.732;9.248;2022-10-30T10:53:54;19.10;98.20
7307;DHT22;3694;48.732;9.248;2022-10-30T10:56:28;19.40;98.40
7307;DHT22;3694;48.732;9.248;2022-10-30T10:59:05;19.50;98.10
7307;DHT22;3694;48.732;9.248;2022-10-30T11:01:43;19.50;97.80
7307;DHT22;3694;48.732;9.248;2022-10-30T11:04:29;19.60;97.80
7307;DHT22;3694;48.732;9.248;2022-10-30T11:06:57;19.70;97.40
7307;DHT22;3694;48.732;9.248;2022-10-30T11:09:26;19.80;97.60
7307;DHT22;3694;48.732;9.248;2022-10-30T11:11:54;19.80;97.30
7307;DHT22;3694;48.732;9.248;2022-10-30T11:14:22;19.90;97.50
7307;DHT22;3694;48.732;9.248;2022-10-30T11:19:32;19.90;97.30
7307;DHT22;3694;48.732;9.248;2022-10-30T11:21:59;19.90;97.50
7307;DHT22;3694;48.732;9.248;2022-10-30T11:24:32;20.00;97.20
7307;DHT22;3694;48.732;9.248;2022-10-30T11:29:50;20.20;97.00
7307;DHT22;3694;48.732;9.248;2022-10-30T11:32:20;20.20;97.00
7307;DHT22;3694;48.732;9.248;2022-10-30T11:35:00;20.30;96.90
7307;DHT22;3694;48.732;9.248;2022-10-30T11:37:32;20.50;96.80
7307;DHT22;3694;48.732;9.248;2022-10-30T11:42:45;20.50;96.70
7307;DHT22;3694;48.732;9.248;2022-10-30T11:45:17;20.60;96.90
7307;DHT22;3694;48.732;9.248;2022-10-30T11:47:45;20.70;96.80
7307;DHT22;3694;48.732;9.248;2022-10-30T11:50:20;20.80;96.70
7307;DHT22;3694;48.732;9.248;2022-10-30T11:52:48;20.80;96.80
7307;DHT22;3694;48.732;9.248;2022-10-30T11:57:55;20.80;96.80
7307;DHT22;3694;48.732;9.248;2022-10-30T12:00:24;20.80;96.70
7307;DHT22;3694;48.732;9.248;2022-10-30T12:02:52;20.80;96.70
7307;DHT22;3694;48.732;9.248;2022-10-30T12:07:53;20.90;97.00
7307;DHT22;3694;48.732;9.248;2022-10-30T12:10:28;20.90;97.20
7307;DHT22;3694;48.732;9.248;2022-10-30T12:12:54;20.90;97.50
7307;DHT22;3694;48.732;9.248;2022-10-30T12:15:24;20.90;97.80
7307;DHT22;3694;48.732;9.248;2022-10-30T12:18:00;21.00;97.60
7307;DHT22;3694;48.732;9.248;2022-10-30T12:20:27;21.10;97.70
7307;DHT22;3694;48.732;9.248;2022-10-30T12:22:53;21.20;97.90
7307;DHT22;3694;48.732;9.248;2022-10-30T12:25:30;21.30;97.70
7307;DHT22;3694;48.732;9.248;2022-10-30T12:28:16;21.50;97.80
7307;DHT22;3694;48.732;9.248;2022-10-30T12:33:51;21.80;97.60
7307;DHT22;3694;48.732;9.248;2022-10-30T12:36:28;21.90;97.60
7307;DHT22;3694;48.732;9.248;2022-10-30T12:39:03;22.10;97.60
7307;DHT22;3694;48.732;9.248;2022-10-30T12:41:45;22.20;97.40
7307;DHT22;3694;48.732;9.248;2022-10-30T12:44:28;22.30;97.30
7307;DHT22;3694;48.732;9.248;2022-10-30T12:55:48;22.30;96.80
7307;DHT22;3694;48.732;9.248;2022-10-30T13:01:16;22.40;97.20
7307;DHT22;3694;48.732;9.248;2022-10-30T13:06:23;22.30;97.20
7307;DHT22;3694;48.732;9.248;2022-10-30T13:09:19;22.30;96.90
7307;DHT22;3694;48.732;9.248;2022-10-30T13:11:59;22.30;97.30
7307;DHT22;3694;48.732;9.248;2022-10-30T13:14:37;22.30;97.60
7307;DHT22;3694;48.732;9.248;2022-10-30T13:17:10;22.20;97.60
7307;DHT22;3694;48.732;9.248;2022-10-30T13:19:36;22.10;97.60
7307;DHT22;3694;48.732;9.248;2022-10-30T13:25:13;22.10;97.60
7307;DHT22;3694;48.732;9.248;2022-10-30T13:27:46;22.10;97.80
7307;DHT22;3694;48.732;9.248;2022-10-30T13:30:20;22.10;98.20
7307;DHT22;3694;48.732;9.248;2022-10-30T13:37:56;21.80;98.60
7307;DHT22;3694;48.732;9.248;2022-10-30T13:40:27;21.80;98.60
7307;DHT22;3694;48.732;9.248;2022-10-30T13:43:24;21.70;98.90
7307;DHT22;3694;48.732;9.248;2022-10-30T13:46:45;21.80;99.20
7307;DHT22;3694;48.732;9.248;2022-10-30T13:49:33;22.00;99.50
7307;DHT22;3694;48.732;9.248;2022-10-30T13:52:13;21.90;98.70
7307;DHT22;3694;48.732;9.248;2022-10-30T13:57:19;21.80;97.80
7307;DHT22;3694;48.732;9.248;2022-10-30T14:02:39;21.70;97.80
7307;DHT22;3694;48.732;9.248;2022-10-30T14:05:45;21.70;98.30
7307;DHT22;3694;48.732;9.248;2022-10-30T14:08:27;21.60;97.90
7307;DHT22;3694;48.732;9.248;2022-10-30T14:10:57;21.50;97.90
7307;DHT22;3694;48.732;9.248;2022-10-30T14:15:53;21.30;98.20
7307;DHT22;3694;48.732;9.248;2022-10-30T14:18:24;21.20;98.40
7307;DHT22;3694;48.732;9.248;2022-10-30T14:20:52;21.10;98.50
7307;DHT22;3694;48.732;9.248;2022-10-30T14:28:42;20.60;99.20
7307;DHT22;3694;48.732;9.248;2022-10-30T14:31:13;20.50;99.30
7307;DHT22;3694;48.732;9.248;2022-10-30T14:33:54;20.30;99.60
7307;DHT22;3694;48.732;9.248;2022-10-30T14:36:22;20.30;99.90
7307;DHT22;3694;48.732;9.248;2022-10-30T14:38:59;19.90;99.90
7307;DHT22;3694;48.732;9.248;2022-10-30T14:50:27;19.50;99.90
7307;DHT22;3694;48.732;9.248;2022-10-30T14:58:40;19.10;99.90
7307;DHT22;3694;48.732;9.248;2022-10-30T15:03:42;19.00;99.90
7307;DHT22;3694;48.732;9.248;2022-10-30T15:16:48;18.50;99.90
7307;DHT22;3694;48.732;9.248;2022-10-30T15:19:15;18.40;99.90
7307;DHT22;3694;48.732;9.248;2022-10-30T15:21:43;18.30;99.90
7307;DHT22;3694;48.732;9.248;2022-10-30T15:24:14;18.20;99.90
7307;DHT22;3694;48.732;9.248;2022-10-30T15:26:44;18.10;99.90
7307;DHT22;3694;48.732;9.248;2022-10-30T15:29:17;18.00;99.90
7307;DHT22;3694;48.732;9.248;2022-10-30T15:31:43;18.00;99.90
7307;DHT22;3694;48.732;9.248;2022-10-30T15:34:29;17.70;99.90
7307;DHT22;3694;48.732;9.248;2022-10-30T15:36:55;17.70;99.90
7307;DHT22;3694;48.732;9.248;2022-10-30T15:39:21;17.50;99.90
7307;DHT22;3694;48.732;9.248;2022-10-30T15:41:50;17.40;99.90
7307;DHT22;3694;48.732;9.248;2022-10-30T15:44:34;17.20;99.90
7307;DHT22;3694;48.732;9.248;2022-10-30T15:47:02;17.10;99.90
7307;DHT22;3694;48.732;9.248;2022-10-30T15:49:36;16.90;99.90
7307;DHT22;3694;48.732;9.248;2022-10-30T15:52:19;16.60;99.90
7307;DHT22;3694;48.732;9.248;2022-10-30T15:54:50;16.60;99.90
7307;DHT22;3694;48.732;9.248;2022-10-30T15:57:27;16.50;99.90
7307;DHT22;3694;48.732;9.248;2022-10-30T15:59:56;16.40;99.90
7307;DHT22;3694;48.732;9.248;2022-10-30T16:02:24;16.30;99.90
7307;DHT22;3694;48.732;9.248;2022-10-30T16:04:51;16.20;99.90
7307;DHT22;3694;48.732;9.248;2022-10-30T16:07:23;16.10;99.90
7307;DHT22;3694;48.732;9.248;2022-10-30T16:09:56;16.00;99.90
7307;DHT22;3694;48.732;9.248;2022-10-30T16:12:31;15.90;99.90
7307;DHT22;3694;48.732;9.248;2022-10-30T16:15:01;15.80;99.90
7307;DHT22;3694;48.732;9.248;2022-10-30T16:17:30;15.70;99.90
7307;DHT22;3694;48.732;9.248;2022-10-30T16:19:59;15.80;99.90
7307;DHT22;3694;48.732;9.248;2022-10-30T16:22:28;15.60;99.90
7307;DHT22;3694;48.732;9.248;2022-10-30T16:24:55;15.50;99.90
7307;DHT22;3694;48.732;9.248;2022-10-30T16:27:23;15.50;99.90
7307;DHT22;3694;48.732;9.248;2022-10-30T16:29:54;15.50;99.90
7307;DHT22;3694;48.732;9.248;2022-10-30T16:32:25;15.30;99.90
7307;DHT22;3694;48.732;9.248;2022-10-30T16:34:57;15.40;99.90
7307;DHT22;3694;48.732;9.248;2022-10-30T16:37:33;15.10;99.90
7307;DHT22;3694;48.732;9.248;2022-10-30T16:40:26;15.00;99.90
7307;DHT22;3694;48.732;9.248;2022-10-30T16:42:54;14.90;99.90
7307;DHT22;3694;48.732;9.248;2022-10-30T16:47:53;14.80;99.90
7307;DHT22;3694;48.732;9.248;2022-10-30T16:50:26;14.70;99.90
7307;DHT22;3694;48.732;9.248;2022-10-30T16:52:53;14.70;99.90
7307;DHT22;3694;48.732;9.248;2022-10-30T16:55:21;14.60;99.90
7307;DHT22;3694;48.732;9.248;2022-10-30T16:57:52;14.50;99.90
7307;DHT22;3694;48.732;9.248;2022-10-30T17:00:20;14.50;99.90
7307;DHT22;3694;48.732;9.248;2022-10-30T17:02:48;14.50;99.90
7307;DHT22;3694;48.732;9.248;2022-10-30T17:05:25;14.50;99.90
7307;DHT22;3694;48.732;9.248;2022-10-30T17:07:56;14.60;99.90
7307;DHT22;3694;48.732;9.248;2022-10-30T17:10:56;14.50;99.90
7307;DHT22;3694;48.732;9.248;2022-10-30T17:13:35;14.50;99.90
7307;DHT22;3694;48.732;9.248;2022-10-30T17:18:45;14.30;99.90
7307;DHT22;3694;48.732;9.248;2022-10-30T17:21:22;14.10;99.90
7307;DHT22;3694;48.732;9.248;2022-10-30T17:23:57;14.00;99.90
7307;DHT22;3694;48.732;9.248;2022-10-30T17:26:25;13.90;99.90
7307;DHT22;3694;48.732;9.248;2022-10-30T17:28:51;14.00;99.90
7307;DHT22;3694;48.732;9.248;2022-10-30T17:33:44;13.90;99.90
7307;DHT22;3694;48.732;9.248;2022-10-30T17:36:10;13.70;99.90
7307;DHT22;3694;48.732;9.248;2022-10-30T17:38:35;13.60;99.90
7307;DHT22;3694;48.732;9.248;2022-10-30T17:41:02;13.50;99.90
7307;DHT22;3694;48.732;9.248;2022-10-30T17:43:30;13.50;99.90
7307;DHT22;3694;48.732;9.248;2022-10-30T17:45:56;13.50;99.90
7307;DHT22;3694;48.732;9.248;2022-10-30T17:48:27;13.50;99.90
7307;DHT22;3694;48.732;9.248;2022-10-30T17:50:54;13.60;99.90
7307;DHT22;3694;48.732;9.248;2022-10-30T17:53:22;13.70;99.90
7307;DHT22;3694;48.732;9.248;2022-10-30T17:56:01;13.70;99.90
7307;DHT22;3694;48.732;9.248;2022-10-30T17:58:28;13.70;99.90
7307;DHT22;3694;48.732;9.248;2022-10-30T18:00:55;13.80;99.90
7307;DHT22;3694;48.732;9.248;2022-10-30T18:03:21;13.80;99.90
7307;DHT22;3694;48.732;9.248;2022-10-30T18:05:47;13.70;99.90
7307;DHT22;3694;48.732;9.248;2022-10-30T18:08:13;13.70;99.90
7307;DHT22;3694;48.732;9.248;2022-10-30T18:10:38;13.60;99.90
7307;DHT22;3694;48.732;9.248;2022-10-30T18:13:04;13.50;99.90
7307;DHT22;3694;48.732;9.248;2022-10-30T18:15:33;13.40;99.90
7307;DHT22;3694;48.732;9.248;2022-10-30T18:18:00;13.30;99.90